sensor_id;sensor_type;location;lat;lon;timestamp;P1;durP1;ratioP1;P2;durP2;ratioP2
42972;SDS011;28610;51.214;6.962;2022-10-14T00:01:53;51.43;;;24.87;;
42972;SDS011;28610;51.214;6.962;2022-10-14T00:04:39;48.83;;;24.10;;
42972;SDS011;28610;51.214;6.962;2022-10-14T00:07:26;46.30;;;24.37;;
42972;SDS011;28610;51.214;6.962;2022-10-14T00:10:11;76.13;;;29.00;;
42972;SDS011;28610;51.214;6.962;2022-10-14T00:12:56;56.47;;;27.40;;
42972;SDS011;28610;51.214;6.962;2022-10-14T00:15:42;52.13;;;26.00;;
42972;SDS011;28610;51.214;6.962;2022-10-14T00:18:27;76.60;;;29.33;;
42972;SDS011;28610;51.214;6.962;2022-10-14T00:21:13;45.30;;;23.90;;
42972;SDS011;28610;51.214;6.962;2022-10-14T00:24:00;57.47;;;26.63;;
42972;SDS011;28610;51.214;6.962;2022-10-14T00:26:46;56.50;;;26.20;;
42972;SDS011;28610;51.214;6.962;2022-10-14T00:29:31;53.33;;;27.33;;
42972;SDS011;28610;51.214;6.962;2022-10-14T00:32:17;65.57;;;27.17;;
42972;SDS011;28610;51.214;6.962;2022-10-14T00:35:02;76.50;;;30.63;;
42972;SDS011;28610;51.214;6.962;2022-10-14T00:37:48;52.10;;;26.10;;
42972;SDS011;28610;51.214;6.962;2022-10-14T00:40:35;65.63;;;28.83;;
42972;SDS011;28610;51.214;6.962;2022-10-14T00:43:20;62.50;;;29.73;;
42972;SDS011;28610;51.214;6.962;2022-10-14T00:46:08;68.87;;;29.40;;
42972;SDS011;28610;51.214;6.962;2022-10-14T00:48:55;65.00;;;28.30;;
42972;SDS011;28610;51.214;6.962;2022-10-14T00:51:43;65.90;;;28.27;;
42972;SDS011;28610;51.214;6.962;2022-10-14T00:54:33;80.37;;;31.23;;
42972;SDS011;28610;51.214;6.962;2022-10-14T00:57:22;53.87;;;26.67;;
42972;SDS011;28610;51.214;6.962;2022-10-14T01:00:10;73.33;;;30.97;;
42972;SDS011;28610;51.214;6.962;2022-10-14T01:02:57;68.20;;;30.70;;
42972;SDS011;28610;51.214;6.962;2022-10-14T01:05:44;93.77;;;33.50;;
42972;SDS011;28610;51.214;6.962;2022-10-14T01:08:36;75.73;;;33.23;;
42972;SDS011;28610;51.214;6.962;2022-10-14T01:11:30;73.43;;;32.40;;
42972;SDS011;28610;51.214;6.962;2022-10-14T01:14:23;53.30;;;27.37;;
42972;SDS011;28610;51.214;6.962;2022-10-14T01:17:17;50.93;;;28.17;;
42972;SDS011;28610;51.214;6.962;2022-10-14T01:20:25;85.77;;;33.00;;
42972;SDS011;28610;51.214;6.962;2022-10-14T01:23:47;73.37;;;31.07;;
42972;SDS011;28610;51.214;6.962;2022-10-14T01:26:51;78.57;;;31.10;;
42972;SDS011;28610;51.214;6.962;2022-10-14T01:30:04;81.43;;;32.20;;
42972;SDS011;28610;51.214;6.962;2022-10-14T01:33:03;74.93;;;30.07;;
42972;SDS011;28610;51.214;6.962;2022-10-14T01:35:55;67.73;;;28.17;;
42972;SDS011;28610;51.214;6.962;2022-10-14T01:38:46;58.67;;;26.57;;
42972;SDS011;28610;51.214;6.962;2022-10-14T01:41:38;74.20;;;28.77;;
42972;SDS011;28610;51.214;6.962;2022-10-14T01:44:26;57.20;;;26.73;;
42972;SDS011;28610;51.214;6.962;2022-10-14T01:47:17;43.17;;;24.93;;
42972;SDS011;28610;51.214;6.962;2022-10-14T01:50:06;60.63;;;27.43;;
42972;SDS011;28610;51.214;6.962;2022-10-14T01:52:56;67.00;;;26.27;;
42972;SDS011;28610;51.214;6.962;2022-10-14T01:55:45;56.63;;;25.63;;
42972;SDS011;28610;51.214;6.962;2022-10-14T01:58:31;59.23;;;24.53;;
42972;SDS011;28610;51.214;6.962;2022-10-14T02:01:20;62.30;;;25.77;;
42972;SDS011;28610;51.214;6.962;2022-10-14T02:04:13;62.30;;;26.80;;
42972;SDS011;28610;51.214;6.962;2022-10-14T02:07:02;53.87;;;25.13;;
42972;SDS011;28610;51.214;6.962;2022-10-14T02:09:52;73.00;;;27.47;;
42972;SDS011;28610;51.214;6.962;2022-10-14T02:13:07;48.03;;;23.60;;
42972;SDS011;28610;51.214;6.962;2022-10-14T02:16:05;51.33;;;24.83;;
42972;SDS011;28610;51.214;6.962;2022-10-14T02:18:59;66.00;;;26.47;;
42972;SDS011;28610;51.214;6.962;2022-10-14T02:21:52;57.30;;;26.00;;
42972;SDS011;28610;51.214;6.962;2022-10-14T02:24:43;54.10;;;25.50;;
42972;SDS011;28610;51.214;6.962;2022-10-14T02:27:31;58.53;;;25.90;;
42972;SDS011;28610;51.214;6.962;2022-10-14T02:30:17;55.33;;;25.60;;
42972;SDS011;28610;51.214;6.962;2022-10-14T02:33:04;60.00;;;26.33;;
42972;SDS011;28610;51.214;6.962;2022-10-14T02:35:50;51.97;;;25.40;;
42972;SDS011;28610;51.214;6.962;2022-10-14T02:38:39;59.37;;;26.00;;
42972;SDS011;28610;51.214;6.962;2022-10-14T02:41:26;57.43;;;25.83;;
42972;SDS011;28610;51.214;6.962;2022-10-14T02:44:16;44.27;;;24.27;;
42972;SDS011;28610;51.214;6.962;2022-10-14T02:47:02;51.37;;;25.23;;
42972;SDS011;28610;51.214;6.962;2022-10-14T02:49:47;56.23;;;24.80;;
42972;SDS011;28610;51.214;6.962;2022-10-14T02:52:33;66.97;;;27.80;;
42972;SDS011;28610;51.214;6.962;2022-10-14T02:55:20;56.70;;;24.43;;
42972;SDS011;28610;51.214;6.962;2022-10-14T02:58:05;56.13;;;24.00;;
42972;SDS011;28610;51.214;6.962;2022-10-14T03:00:50;49.30;;;24.00;;
42972;SDS011;28610;51.214;6.962;2022-10-14T03:03:36;52.13;;;24.87;;
42972;SDS011;28610;51.214;6.962;2022-10-14T03:06:21;64.23;;;26.33;;
42972;SDS011;28610;51.214;6.962;2022-10-14T03:09:07;48.83;;;24.03;;
42972;SDS011;28610;51.214;6.962;2022-10-14T03:11:53;52.50;;;24.63;;
42972;SDS011;28610;51.214;6.962;2022-10-14T03:14:39;49.93;;;23.50;;
42972;SDS011;28610;51.214;6.962;2022-10-14T03:17:24;58.37;;;24.20;;
42972;SDS011;28610;51.214;6.962;2022-10-14T03:20:10;37.40;;;20.50;;
42972;SDS011;28610;51.214;6.962;2022-10-14T03:22:55;40.40;;;21.17;;
42972;SDS011;28610;51.214;6.962;2022-10-14T03:25:42;42.97;;;21.20;;
42972;SDS011;28610;51.214;6.962;2022-10-14T03:28:29;38.93;;;20.07;;
42972;SDS011;28610;51.214;6.962;2022-10-14T03:31:15;31.87;;;18.87;;
42972;SDS011;28610;51.214;6.962;2022-10-14T03:34:00;39.83;;;19.27;;
42972;SDS011;28610;51.214;6.962;2022-10-14T03:36:46;40.63;;;20.60;;
42972;SDS011;28610;51.214;6.962;2022-10-14T03:39:31;35.03;;;19.37;;
42972;SDS011;28610;51.214;6.962;2022-10-14T03:42:17;37.77;;;19.87;;
42972;SDS011;28610;51.214;6.962;2022-10-14T03:45:04;41.90;;;20.60;;
42972;SDS011;28610;51.214;6.962;2022-10-14T03:47:50;32.57;;;17.77;;
42972;SDS011;28610;51.214;6.962;2022-10-14T03:50:35;45.77;;;21.87;;
42972;SDS011;28610;51.214;6.962;2022-10-14T03:53:21;43.37;;;20.57;;
42972;SDS011;28610;51.214;6.962;2022-10-14T03:56:06;40.33;;;20.33;;
42972;SDS011;28610;51.214;6.962;2022-10-14T03:58:52;41.30;;;20.70;;
42972;SDS011;28610;51.214;6.962;2022-10-14T04:01:39;45.70;;;21.00;;
42972;SDS011;28610;51.214;6.962;2022-10-14T04:04:24;43.67;;;20.43;;
42972;SDS011;28610;51.214;6.962;2022-10-14T04:07:10;43.57;;;21.10;;
42972;SDS011;28610;51.214;6.962;2022-10-14T04:09:55;48.90;;;21.33;;
42972;SDS011;28610;51.214;6.962;2022-10-14T04:12:41;39.20;;;19.10;;
42972;SDS011;28610;51.214;6.962;2022-10-14T04:15:26;41.87;;;20.10;;
42972;SDS011;28610;51.214;6.962;2022-10-14T04:18:13;50.60;;;20.60;;
42972;SDS011;28610;51.214;6.962;2022-10-14T04:20:59;37.53;;;18.80;;
42972;SDS011;28610;51.214;6.962;2022-10-14T04:23:45;45.63;;;20.80;;
42972;SDS011;28610;51.214;6.962;2022-10-14T04:26:30;51.33;;;20.30;;
42972;SDS011;28610;51.214;6.962;2022-10-14T04:29:16;48.67;;;20.53;;
42972;SDS011;28610;51.214;6.962;2022-10-14T04:32:01;35.90;;;18.50;;
42972;SDS011;28610;51.214;6.962;2022-10-14T04:34:48;39.07;;;17.50;;
42972;SDS011;28610;51.214;6.962;2022-10-14T04:37:34;41.70;;;18.30;;
42972;SDS011;28610;51.214;6.962;2022-10-14T04:40:19;45.07;;;19.80;;
42972;SDS011;28610;51.214;6.962;2022-10-14T04:43:08;43.43;;;19.93;;
42972;SDS011;28610;51.214;6.962;2022-10-14T04:45:53;40.47;;;18.37;;
42972;SDS011;28610;51.214;6.962;2022-10-14T04:48:38;38.60;;;17.70;;
42972;SDS011;28610;51.214;6.962;2022-10-14T04:51:25;33.47;;;17.33;;
42972;SDS011;28610;51.214;6.962;2022-10-14T04:54:10;36.03;;;17.43;;
42972;SDS011;28610;51.214;6.962;2022-10-14T04:56:56;44.27;;;19.53;;
42972;SDS011;28610;51.214;6.962;2022-10-14T04:59:41;32.50;;;17.13;;
42972;SDS011;28610;51.214;6.962;2022-10-14T05:02:27;40.77;;;18.37;;
42972;SDS011;28610;51.214;6.962;2022-10-14T05:05:12;38.07;;;17.53;;
42972;SDS011;28610;51.214;6.962;2022-10-14T05:07:59;47.90;;;19.50;;
42972;SDS011;28610;51.214;6.962;2022-10-14T05:10:46;40.97;;;18.57;;
42972;SDS011;28610;51.214;6.962;2022-10-14T05:13:32;38.67;;;17.27;;
42972;SDS011;28610;51.214;6.962;2022-10-14T05:16:17;43.13;;;17.17;;
42972;SDS011;28610;51.214;6.962;2022-10-14T05:19:03;31.60;;;16.57;;
42972;SDS011;28610;51.214;6.962;2022-10-14T05:21:48;59.57;;;19.50;;
42972;SDS011;28610;51.214;6.962;2022-10-14T05:24:35;29.27;;;16.53;;
42972;SDS011;28610;51.214;6.962;2022-10-14T05:27:20;31.43;;;16.43;;
42972;SDS011;28610;51.214;6.962;2022-10-14T05:30:06;32.73;;;18.07;;
42972;SDS011;28610;51.214;6.962;2022-10-14T05:32:53;33.30;;;17.27;;
42972;SDS011;28610;51.214;6.962;2022-10-14T05:35:38;36.33;;;17.07;;
42972;SDS011;28610;51.214;6.962;2022-10-14T05:38:24;27.93;;;16.43;;
42972;SDS011;28610;51.214;6.962;2022-10-14T05:41:10;29.60;;;16.67;;
42972;SDS011;28610;51.214;6.962;2022-10-14T05:43:56;27.23;;;15.20;;
42972;SDS011;28610;51.214;6.962;2022-10-14T05:46:41;22.67;;;13.40;;
42972;SDS011;28610;51.214;6.962;2022-10-14T05:49:27;31.13;;;16.17;;
42972;SDS011;28610;51.214;6.962;2022-10-14T05:52:12;29.37;;;17.20;;
42972;SDS011;28610;51.214;6.962;2022-10-14T05:54:57;29.30;;;15.23;;
42972;SDS011;28610;51.214;6.962;2022-10-14T05:57:44;37.77;;;18.93;;
42972;SDS011;28610;51.214;6.962;2022-10-14T06:00:30;40.37;;;25.00;;
42972;SDS011;28610;51.214;6.962;2022-10-14T06:03:15;41.23;;;23.43;;
42972;SDS011;28610;51.214;6.962;2022-10-14T06:06:00;187.97;;;104.00;;
42972;SDS011;28610;51.214;6.962;2022-10-14T06:08:46;47.87;;;32.43;;
42972;SDS011;28610;51.214;6.962;2022-10-14T06:11:31;32.40;;;18.83;;
42972;SDS011;28610;51.214;6.962;2022-10-14T06:14:18;41.10;;;25.97;;
42972;SDS011;28610;51.214;6.962;2022-10-14T06:17:03;28.57;;;16.43;;
42972;SDS011;28610;51.214;6.962;2022-10-14T06:19:49;69.07;;;40.13;;
42972;SDS011;28610;51.214;6.962;2022-10-14T06:22:34;35.23;;;18.87;;
42972;SDS011;28610;51.214;6.962;2022-10-14T06:25:20;29.20;;;15.97;;
42972;SDS011;28610;51.214;6.962;2022-10-14T06:28:05;34.10;;;24.07;;
42972;SDS011;28610;51.214;6.962;2022-10-14T06:30:52;31.30;;;20.83;;
42972;SDS011;28610;51.214;6.962;2022-10-14T06:33:38;30.53;;;17.73;;
42972;SDS011;28610;51.214;6.962;2022-10-14T06:36:24;25.07;;;14.30;;
42972;SDS011;28610;51.214;6.962;2022-10-14T06:39:09;36.00;;;26.03;;
42972;SDS011;28610;51.214;6.962;2022-10-14T06:41:55;18.77;;;11.60;;
42972;SDS011;28610;51.214;6.962;2022-10-14T06:44:40;20.70;;;12.57;;
42972;SDS011;28610;51.214;6.962;2022-10-14T06:47:27;30.67;;;17.77;;
42972;SDS011;28610;51.214;6.962;2022-10-14T06:50:12;20.03;;;13.10;;
42972;SDS011;28610;51.214;6.962;2022-10-14T06:52:57;22.93;;;13.77;;
42972;SDS011;28610;51.214;6.962;2022-10-14T06:55:43;18.50;;;11.10;;
42972;SDS011;28610;51.214;6.962;2022-10-14T06:58:29;25.13;;;16.10;;
42972;SDS011;28610;51.214;6.962;2022-10-14T07:01:14;20.20;;;11.87;;
42972;SDS011;28610;51.214;6.962;2022-10-14T07:04:01;21.43;;;14.07;;
42972;SDS011;28610;51.214;6.962;2022-10-14T07:06:47;23.33;;;16.27;;
42972;SDS011;28610;51.214;6.962;2022-10-14T07:09:33;18.87;;;12.30;;
42972;SDS011;28610;51.214;6.962;2022-10-14T07:12:18;17.93;;;11.53;;
42972;SDS011;28610;51.214;6.962;2022-10-14T07:15:04;17.20;;;10.13;;
42972;SDS011;28610;51.214;6.962;2022-10-14T07:17:50;17.67;;;10.50;;
42972;SDS011;28610;51.214;6.962;2022-10-14T07:20:37;18.17;;;10.30;;
42972;SDS011;28610;51.214;6.962;2022-10-14T07:23:22;16.27;;;10.50;;
42972;SDS011;28610;51.214;6.962;2022-10-14T07:26:08;24.13;;;14.13;;
42972;SDS011;28610;51.214;6.962;2022-10-14T07:28:53;16.30;;;9.63;;
42972;SDS011;28610;51.214;6.962;2022-10-14T07:31:39;22.50;;;12.27;;
42972;SDS011;28610;51.214;6.962;2022-10-14T07:34:24;18.87;;;12.07;;
42972;SDS011;28610;51.214;6.962;2022-10-14T07:37:11;18.97;;;11.60;;
42972;SDS011;28610;51.214;6.962;2022-10-14T07:39:56;19.47;;;11.13;;
42972;SDS011;28610;51.214;6.962;2022-10-14T07:42:42;17.17;;;10.13;;
42972;SDS011;28610;51.214;6.962;2022-10-14T07:45:27;15.53;;;9.50;;
42972;SDS011;28610;51.214;6.962;2022-10-14T07:48:17;16.17;;;9.70;;
42972;SDS011;28610;51.214;6.962;2022-10-14T07:51:03;12.53;;;8.43;;
42972;SDS011;28610;51.214;6.962;2022-10-14T07:53:50;18.23;;;9.17;;
42972;SDS011;28610;51.214;6.962;2022-10-14T07:56:37;17.20;;;9.77;;
42972;SDS011;28610;51.214;6.962;2022-10-14T07:59:23;17.20;;;10.50;;
42972;SDS011;28610;51.214;6.962;2022-10-14T08:02:09;19.47;;;12.77;;
42972;SDS011;28610;51.214;6.962;2022-10-14T08:04:55;18.63;;;9.43;;
42972;SDS011;28610;51.214;6.962;2022-10-14T08:07:41;18.83;;;9.93;;
42972;SDS011;28610;51.214;6.962;2022-10-14T08:10:28;15.47;;;8.47;;
42972;SDS011;28610;51.214;6.962;2022-10-14T08:13:14;15.17;;;9.17;;
42972;SDS011;28610;51.214;6.962;2022-10-14T08:16:00;16.07;;;9.37;;
42972;SDS011;28610;51.214;6.962;2022-10-14T08:18:46;15.17;;;9.17;;
42972;SDS011;28610;51.214;6.962;2022-10-14T08:21:32;12.43;;;8.13;;
42972;SDS011;28610;51.214;6.962;2022-10-14T08:24:17;15.27;;;9.33;;
42972;SDS011;28610;51.214;6.962;2022-10-14T08:27:04;13.23;;;9.33;;
42972;SDS011;28610;51.214;6.962;2022-10-14T08:29:50;18.73;;;10.03;;
42972;SDS011;28610;51.214;6.962;2022-10-14T08:32:36;17.00;;;8.83;;
42972;SDS011;28610;51.214;6.962;2022-10-14T08:35:21;16.13;;;9.17;;
42972;SDS011;28610;51.214;6.962;2022-10-14T08:38:06;18.47;;;9.40;;
42972;SDS011;28610;51.214;6.962;2022-10-14T08:40:55;14.53;;;8.80;;
42972;SDS011;28610;51.214;6.962;2022-10-14T08:43:48;13.83;;;8.63;;
42972;SDS011;28610;51.214;6.962;2022-10-14T08:46:37;15.70;;;8.33;;
42972;SDS011;28610;51.214;6.962;2022-10-14T08:49:25;13.40;;;7.80;;
42972;SDS011;28610;51.214;6.962;2022-10-14T08:52:16;13.00;;;8.00;;
42972;SDS011;28610;51.214;6.962;2022-10-14T08:55:16;12.97;;;7.57;;
42972;SDS011;28610;51.214;6.962;2022-10-14T08:58:10;11.03;;;7.50;;
42972;SDS011;28610;51.214;6.962;2022-10-14T09:01:00;11.37;;;7.43;;
42972;SDS011;28610;51.214;6.962;2022-10-14T09:03:55;9.47;;;6.70;;
42972;SDS011;28610;51.214;6.962;2022-10-14T09:06:44;12.03;;;6.43;;
42972;SDS011;28610;51.214;6.962;2022-10-14T09:09:33;9.50;;;6.10;;
42972;SDS011;28610;51.214;6.962;2022-10-14T09:12:24;9.93;;;6.57;;
42972;SDS011;28610;51.214;6.962;2022-10-14T09:15:15;9.00;;;6.20;;
42972;SDS011;28610;51.214;6.962;2022-10-14T09:18:10;12.27;;;6.83;;
42972;SDS011;28610;51.214;6.962;2022-10-14T09:21:21;9.63;;;6.73;;
42972;SDS011;28610;51.214;6.962;2022-10-14T09:24:10;9.60;;;6.57;;
42972;SDS011;28610;51.214;6.962;2022-10-14T09:26:59;20.97;;;14.87;;
42972;SDS011;28610;51.214;6.962;2022-10-14T09:29:48;10.70;;;6.77;;
42972;SDS011;28610;51.214;6.962;2022-10-14T09:32:38;10.27;;;6.60;;
42972;SDS011;28610;51.214;6.962;2022-10-14T09:35:28;10.80;;;6.80;;
42972;SDS011;28610;51.214;6.962;2022-10-14T09:38:15;13.57;;;7.90;;
42972;SDS011;28610;51.214;6.962;2022-10-14T09:41:02;9.73;;;6.43;;
42972;SDS011;28610;51.214;6.962;2022-10-14T09:47:04;13.47;;;7.03;;
42972;SDS011;28610;51.214;6.962;2022-10-14T09:49:56;12.20;;;6.83;;
42972;SDS011;28610;51.214;6.962;2022-10-14T09:52:44;11.30;;;7.10;;
42972;SDS011;28610;51.214;6.962;2022-10-14T09:55:35;14.30;;;7.20;;
42972;SDS011;28610;51.214;6.962;2022-10-14T09:58:26;12.00;;;7.47;;
42972;SDS011;28610;51.214;6.962;2022-10-14T10:01:16;18.73;;;12.90;;
42972;SDS011;28610;51.214;6.962;2022-10-14T10:07:21;11.23;;;7.13;;
42972;SDS011;28610;51.214;6.962;2022-10-14T10:10:17;11.43;;;7.77;;
42972;SDS011;28610;51.214;6.962;2022-10-14T10:13:13;13.03;;;7.30;;
42972;SDS011;28610;51.214;6.962;2022-10-14T10:16:07;16.53;;;9.83;;
42972;SDS011;28610;51.214;6.962;2022-10-14T10:19:18;13.33;;;8.40;;
42972;SDS011;28610;51.214;6.962;2022-10-14T10:22:14;15.13;;;7.83;;
42972;SDS011;28610;51.214;6.962;2022-10-14T10:25:17;13.00;;;7.80;;
42972;SDS011;28610;51.214;6.962;2022-10-14T10:28:14;15.20;;;7.60;;
42972;SDS011;28610;51.214;6.962;2022-10-14T10:31:04;11.53;;;7.67;;
42972;SDS011;28610;51.214;6.962;2022-10-14T10:34:01;16.70;;;7.57;;
42972;SDS011;28610;51.214;6.962;2022-10-14T10:36:55;13.10;;;8.10;;
42972;SDS011;28610;51.214;6.962;2022-10-14T10:39:47;13.47;;;8.13;;
42972;SDS011;28610;51.214;6.962;2022-10-14T10:42:42;14.53;;;7.97;;
42972;SDS011;28610;51.214;6.962;2022-10-14T10:45:38;14.87;;;8.27;;
42972;SDS011;28610;51.214;6.962;2022-10-14T10:48:32;15.10;;;8.93;;
42972;SDS011;28610;51.214;6.962;2022-10-14T10:51:24;15.33;;;8.47;;
42972;SDS011;28610;51.214;6.962;2022-10-14T10:54:18;15.73;;;8.70;;
42972;SDS011;28610;51.214;6.962;2022-10-14T10:57:17;15.23;;;8.50;;
42972;SDS011;28610;51.214;6.962;2022-10-14T11:00:14;14.67;;;9.10;;
42972;SDS011;28610;51.214;6.962;2022-10-14T11:03:09;14.93;;;9.30;;
42972;SDS011;28610;51.214;6.962;2022-10-14T11:06:12;19.07;;;9.93;;
42972;SDS011;28610;51.214;6.962;2022-10-14T11:09:23;17.33;;;9.47;;
42972;SDS011;28610;51.214;6.962;2022-10-14T11:12:33;18.20;;;9.77;;
42972;SDS011;28610;51.214;6.962;2022-10-14T11:15:26;17.57;;;9.60;;
42972;SDS011;28610;51.214;6.962;2022-10-14T11:18:23;21.80;;;11.33;;
42972;SDS011;28610;51.214;6.962;2022-10-14T11:21:19;23.23;;;13.83;;
42972;SDS011;28610;51.214;6.962;2022-10-14T11:24:17;27.27;;;15.13;;
42972;SDS011;28610;51.214;6.962;2022-10-14T11:27:12;17.43;;;9.80;;
42972;SDS011;28610;51.214;6.962;2022-10-14T11:30:12;20.47;;;10.60;;
42972;SDS011;28610;51.214;6.962;2022-10-14T11:33:05;21.87;;;11.07;;
42972;SDS011;28610;51.214;6.962;2022-10-14T11:36:04;19.67;;;11.00;;
42972;SDS011;28610;51.214;6.962;2022-10-14T11:39:06;21.70;;;11.13;;
42972;SDS011;28610;51.214;6.962;2022-10-14T11:42:01;22.27;;;12.37;;
42972;SDS011;28610;51.214;6.962;2022-10-14T11:45:00;24.50;;;12.70;;
42972;SDS011;28610;51.214;6.962;2022-10-14T11:48:23;24.07;;;11.97;;
42972;SDS011;28610;51.214;6.962;2022-10-14T11:51:18;26.17;;;13.23;;
42972;SDS011;28610;51.214;6.962;2022-10-14T11:54:08;27.97;;;13.90;;
42972;SDS011;28610;51.214;6.962;2022-10-14T11:56:58;26.33;;;14.10;;
42972;SDS011;28610;51.214;6.962;2022-10-14T12:02:57;28.40;;;16.10;;
42972;SDS011;28610;51.214;6.962;2022-10-14T12:05:53;30.23;;;15.13;;
42972;SDS011;28610;51.214;6.962;2022-10-14T12:08:46;32.57;;;15.47;;
42972;SDS011;28610;51.214;6.962;2022-10-14T12:11:39;34.17;;;16.53;;
42972;SDS011;28610;51.214;6.962;2022-10-14T12:14:28;35.73;;;16.67;;
42972;SDS011;28610;51.214;6.962;2022-10-14T12:17:17;37.77;;;17.63;;
42972;SDS011;28610;51.214;6.962;2022-10-14T12:20:06;42.60;;;18.30;;
42972;SDS011;28610;51.214;6.962;2022-10-14T12:23:05;34.00;;;17.83;;
42972;SDS011;28610;51.214;6.962;2022-10-14T12:25:54;28.97;;;16.27;;
42972;SDS011;28610;51.214;6.962;2022-10-14T12:28:42;25.07;;;14.10;;
42972;SDS011;28610;51.214;6.962;2022-10-14T12:31:32;27.33;;;14.63;;
42972;SDS011;28610;51.214;6.962;2022-10-14T12:34:26;33.17;;;15.77;;
42972;SDS011;28610;51.214;6.962;2022-10-14T12:40:36;31.07;;;15.53;;
42972;SDS011;28610;51.214;6.962;2022-10-14T12:43:23;32.73;;;15.50;;
42972;SDS011;28610;51.214;6.962;2022-10-14T12:46:12;33.00;;;16.53;;
42972;SDS011;28610;51.214;6.962;2022-10-14T12:48:58;34.00;;;16.83;;
42972;SDS011;28610;51.214;6.962;2022-10-14T12:54:49;30.57;;;16.03;;
42972;SDS011;28610;51.214;6.962;2022-10-14T12:57:37;31.70;;;16.53;;
42972;SDS011;28610;51.214;6.962;2022-10-14T13:00:29;33.30;;;16.80;;
42972;SDS011;28610;51.214;6.962;2022-10-14T13:03:18;32.07;;;16.00;;
42972;SDS011;28610;51.214;6.962;2022-10-14T13:09:33;34.33;;;17.43;;
42972;SDS011;28610;51.214;6.962;2022-10-14T13:15:32;36.23;;;17.43;;
42972;SDS011;28610;51.214;6.962;2022-10-14T13:18:50;34.27;;;16.63;;
42972;SDS011;28610;51.214;6.962;2022-10-14T13:21:49;29.47;;;16.73;;
42972;SDS011;28610;51.214;6.962;2022-10-14T13:24:37;29.30;;;15.77;;
42972;SDS011;28610;51.214;6.962;2022-10-14T13:27:28;32.60;;;17.73;;
42972;SDS011;28610;51.214;6.962;2022-10-14T13:30:23;34.17;;;16.47;;
42972;SDS011;28610;51.214;6.962;2022-10-14T13:33:17;31.00;;;15.17;;
42972;SDS011;28610;51.214;6.962;2022-10-14T13:36:09;28.30;;;15.50;;
42972;SDS011;28610;51.214;6.962;2022-10-14T13:38:59;30.03;;;15.27;;
42972;SDS011;28610;51.214;6.962;2022-10-14T13:41:45;37.33;;;16.87;;
42972;SDS011;28610;51.214;6.962;2022-10-14T13:44:31;32.73;;;15.57;;
42972;SDS011;28610;51.214;6.962;2022-10-14T13:47:18;29.43;;;15.33;;
42972;SDS011;28610;51.214;6.962;2022-10-14T13:50:07;27.80;;;14.70;;
42972;SDS011;28610;51.214;6.962;2022-10-14T13:52:56;28.60;;;14.00;;
42972;SDS011;28610;51.214;6.962;2022-10-14T13:55:45;24.50;;;13.70;;
42972;SDS011;28610;51.214;6.962;2022-10-14T13:58:33;29.73;;;15.03;;
42972;SDS011;28610;51.214;6.962;2022-10-14T14:01:26;40.17;;;19.17;;
42972;SDS011;28610;51.214;6.962;2022-10-14T14:04:18;99.37;;;42.87;;
42972;SDS011;28610;51.214;6.962;2022-10-14T14:07:10;51.67;;;28.80;;
42972;SDS011;28610;51.214;6.962;2022-10-14T14:10:01;27.30;;;15.67;;
42972;SDS011;28610;51.214;6.962;2022-10-14T14:12:49;28.37;;;15.57;;
42972;SDS011;28610;51.214;6.962;2022-10-14T14:15:35;28.33;;;15.80;;
42972;SDS011;28610;51.214;6.962;2022-10-14T14:18:24;29.70;;;15.60;;
42972;SDS011;28610;51.214;6.962;2022-10-14T14:21:20;29.23;;;15.37;;
42972;SDS011;28610;51.214;6.962;2022-10-14T14:24:12;33.17;;;16.27;;
42972;SDS011;28610;51.214;6.962;2022-10-14T14:27:01;39.37;;;17.00;;
42972;SDS011;28610;51.214;6.962;2022-10-14T14:29:47;41.77;;;18.93;;
42972;SDS011;28610;51.214;6.962;2022-10-14T14:32:35;29.67;;;15.57;;
42972;SDS011;28610;51.214;6.962;2022-10-14T14:35:20;37.80;;;17.00;;
42972;SDS011;28610;51.214;6.962;2022-10-14T14:41:15;30.73;;;16.77;;
42972;SDS011;28610;51.214;6.962;2022-10-14T14:44:03;33.37;;;17.57;;
42972;SDS011;28610;51.214;6.962;2022-10-14T14:46:49;37.77;;;17.63;;
42972;SDS011;28610;51.214;6.962;2022-10-14T14:49:36;35.17;;;18.50;;
42972;SDS011;28610;51.214;6.962;2022-10-14T14:52:23;32.70;;;17.20;;
42972;SDS011;28610;51.214;6.962;2022-10-14T14:58:22;36.13;;;17.77;;
42972;SDS011;28610;51.214;6.962;2022-10-14T15:01:16;37.13;;;18.23;;
42972;SDS011;28610;51.214;6.962;2022-10-14T15:04:04;33.43;;;17.10;;
42972;SDS011;28610;51.214;6.962;2022-10-14T15:06:59;35.43;;;18.40;;
42972;SDS011;28610;51.214;6.962;2022-10-14T15:09:47;34.07;;;17.00;;
42972;SDS011;28610;51.214;6.962;2022-10-14T15:12:37;33.83;;;18.77;;
42972;SDS011;28610;51.214;6.962;2022-10-14T15:15:26;40.73;;;21.67;;
42972;SDS011;28610;51.214;6.962;2022-10-14T15:18:14;33.43;;;18.07;;
42972;SDS011;28610;51.214;6.962;2022-10-14T15:21:10;39.07;;;17.23;;
42972;SDS011;28610;51.214;6.962;2022-10-14T15:23:58;34.23;;;17.33;;
42972;SDS011;28610;51.214;6.962;2022-10-14T15:26:46;33.53;;;17.13;;
42972;SDS011;28610;51.214;6.962;2022-10-14T15:29:32;33.70;;;17.60;;
42972;SDS011;28610;51.214;6.962;2022-10-14T15:32:18;30.37;;;15.90;;
42972;SDS011;28610;51.214;6.962;2022-10-14T15:35:03;34.53;;;18.57;;
42972;SDS011;28610;51.214;6.962;2022-10-14T15:37:52;30.77;;;17.27;;
42972;SDS011;28610;51.214;6.962;2022-10-14T15:40:38;28.33;;;15.73;;
42972;SDS011;28610;51.214;6.962;2022-10-14T15:43:25;26.40;;;15.67;;
42972;SDS011;28610;51.214;6.962;2022-10-14T15:46:12;32.17;;;16.50;;
42972;SDS011;28610;51.214;6.962;2022-10-14T15:49:24;29.07;;;15.17;;
42972;SDS011;28610;51.214;6.962;2022-10-14T15:52:12;33.10;;;16.83;;
42972;SDS011;28610;51.214;6.962;2022-10-14T15:54:58;30.10;;;16.57;;
42972;SDS011;28610;51.214;6.962;2022-10-14T15:57:43;33.13;;;16.97;;
42972;SDS011;28610;51.214;6.962;2022-10-14T16:00:29;46.80;;;20.50;;
42972;SDS011;28610;51.214;6.962;2022-10-14T16:03:17;62.03;;;27.77;;
42972;SDS011;28610;51.214;6.962;2022-10-14T16:06:03;39.87;;;22.30;;
42972;SDS011;28610;51.214;6.962;2022-10-14T16:08:48;31.60;;;18.03;;
42972;SDS011;28610;51.214;6.962;2022-10-14T16:11:34;33.30;;;18.10;;
42972;SDS011;28610;51.214;6.962;2022-10-14T16:14:19;32.00;;;18.63;;
42972;SDS011;28610;51.214;6.962;2022-10-14T16:17:05;33.67;;;19.10;;
42972;SDS011;28610;51.214;6.962;2022-10-14T16:19:53;32.30;;;17.27;;
42972;SDS011;28610;51.214;6.962;2022-10-14T16:22:39;30.97;;;17.53;;
42972;SDS011;28610;51.214;6.962;2022-10-14T16:25:25;34.30;;;17.60;;
42972;SDS011;28610;51.214;6.962;2022-10-14T16:28:16;36.03;;;20.47;;
42972;SDS011;28610;51.214;6.962;2022-10-14T16:31:04;35.70;;;20.03;;
42972;SDS011;28610;51.214;6.962;2022-10-14T16:33:50;39.77;;;18.63;;
42972;SDS011;28610;51.214;6.962;2022-10-14T16:36:38;41.40;;;19.73;;
42972;SDS011;28610;51.214;6.962;2022-10-14T16:39:25;29.07;;;16.67;;
42972;SDS011;28610;51.214;6.962;2022-10-14T16:42:10;40.70;;;17.63;;
42972;SDS011;28610;51.214;6.962;2022-10-14T16:44:55;33.53;;;16.90;;
42972;SDS011;28610;51.214;6.962;2022-10-14T16:47:41;38.50;;;19.77;;
42972;SDS011;28610;51.214;6.962;2022-10-14T16:50:26;25.93;;;15.00;;
42972;SDS011;28610;51.214;6.962;2022-10-14T16:53:13;31.27;;;16.37;;
42972;SDS011;28610;51.214;6.962;2022-10-14T16:56:17;28.83;;;15.00;;
42972;SDS011;28610;51.214;6.962;2022-10-14T16:59:22;29.43;;;16.17;;
42972;SDS011;28610;51.214;6.962;2022-10-14T17:02:09;29.30;;;15.53;;